Time;durP1;ratioP1;P1;durP2;ratioP2;P2;SDS_P1;SDS_P2;PMS_P1;PMS_P2;Temp;Humidity;BMP_temperature;BMP_pressure;BME280_temperature;BME280_humidity;BME280_pressure;Samples;Min_cycle;Max_cycle;Signal;HPM_P1;HPM_P2
2021/12/29 00:00:08;;;;;;;19.33;9.83;;;-5.40;99.90;;;;;;4995363;28;20247;-68
2021/12/29 00:02:35;;;;;;;16.33;9.30;;;-5.40;99.90;;;;;;4995859;28;20695;-68
2021/12/29 00:05:02;;;;;;;17.33;9.27;;;-5.30;99.90;;;;;;4995880;28;20203;-68
2021/12/29 00:07:30;;;;;;;15.00;9.23;;;-5.30;99.90;;;;;;4995330;28;20214;-68
2021/12/29 00:09:59;;;;;;;19.37;9.53;;;-5.30;99.90;;;;;;4991351;28;20207;-68
2021/12/29 00:12:26;;;;;;;19.40;9.90;;;-5.20;99.90;;;;;;4976404;28;20660;-68
2021/12/29 00:14:54;;;;;;;16.00;8.43;;;-5.20;99.90;;;;;;4976097;28;20569;-69
2021/12/29 00:17:22;;;;;;;16.10;9.40;;;-5.20;99.90;;;;;;4975841;28;20564;-69
2021/12/29 00:19:49;;;;;;;18.73;9.23;;;-5.30;99.90;;;;;;4975875;28;20249;-68
2021/12/29 00:22:15;;;;;;;16.73;8.93;;;-5.30;99.90;;;;;;4975656;28;20204;-67
2021/12/29 00:24:45;;;;;;;17.10;9.37;;;-5.30;99.90;;;;;;4976003;28;20216;-69
2021/12/29 00:27:12;;;;;;;22.00;8.87;;;-5.30;99.90;;;;;;4975389;28;20211;-70
2021/12/29 00:29:38;;;;;;;18.07;9.57;;;-5.30;99.90;;;;;;4975924;28;20219;-68
2021/12/29 00:32:05;;;;;;;20.33;9.87;;;-5.40;99.90;;;;;;4975696;28;20219;-67
2021/12/29 00:34:32;;;;;;;20.13;10.23;;;-5.40;99.90;;;;;;4982007;28;20762;-68
2021/12/29 00:36:59;;;;;;;17.00;9.33;;;-5.40;99.90;;;;;;4995155;28;20203;-69
2021/12/29 00:39:26;;;;;;;19.80;9.33;;;-5.40;99.90;;;;;;4994768;28;20224;-68
2021/12/29 00:41:54;;;;;;;15.77;8.47;;;-5.40;99.90;;;;;;4994656;28;20211;-68
2021/12/29 00:44:21;;;;;;;16.97;8.87;;;-5.40;99.90;;;;;;4994487;28;20670;-68
2021/12/29 00:46:53;;;;;;;18.27;8.93;;;-5.40;99.90;;;;;;4994792;28;20683;-69
2021/12/29 00:49:21;;;;;;;18.00;8.77;;;-5.30;99.90;;;;;;4993919;28;20200;-69
2021/12/29 00:51:49;;;;;;;15.97;8.70;;;-5.30;99.90;;;;;;4994732;28;20243;-69
2021/12/29 00:54:16;;;;;;;16.23;9.33;;;-5.30;99.90;;;;;;4994418;28;20202;-68
2021/12/29 00:56:44;;;;;;;15.17;8.73;;;-5.30;99.90;;;;;;4994703;28;20675;-68
2021/12/29 00:59:12;;;;;;;18.20;9.30;;;-5.30;99.90;;;;;;4994166;28;20276;-68
2021/12/29 01:01:38;;;;;;;16.27;9.30;;;-5.30;99.90;;;;;;4994676;28;20211;-68
2021/12/29 01:04:06;;;;;;;19.20;9.07;;;-5.30;99.90;;;;;;4994506;28;20214;-68
2021/12/29 01:06:33;;;;;;;16.87;9.17;;;-5.30;99.90;;;;;;4994174;28;20210;-69
2021/12/29 01:09:00;;;;;;;17.37;9.10;;;-5.30;99.90;;;;;;4994639;28;20205;-68
2021/12/29 01:11:27;;;;;;;17.50;8.37;;;-5.30;99.90;;;;;;4994353;28;20559;-68
2021/12/29 01:13:54;;;;;;;16.00;8.67;;;-5.30;99.90;;;;;;4994343;28;20208;-67
2021/12/29 01:16:38;;;;;;;18.37;8.60;;;-5.40;99.90;;;;;;4993949;28;20212;-68
2021/12/29 01:19:09;;;;;;;16.37;8.97;;;-5.40;99.90;;;;;;4994152;28;20222;-68
2021/12/29 01:21:37;;;;;;;14.47;8.27;;;-5.40;99.90;;;;;;4993807;28;20200;-69
2021/12/29 01:24:05;;;;;;;15.57;8.27;;;-5.40;99.90;;;;;;4993964;28;20207;-68
2021/12/29 01:26:32;;;;;;;14.33;8.20;;;-5.40;99.90;;;;;;4996718;28;20204;-70
2021/12/29 01:28:59;;;;;;;16.57;8.60;;;-5.40;99.90;;;;;;4985380;28;20203;-68
2021/12/29 01:31:27;;;;;;;14.50;8.03;;;-5.40;99.90;;;;;;4993972;28;20199;-68
2021/12/29 01:33:54;;;;;;;15.53;8.53;;;-5.40;99.90;;;;;;4993956;28;20295;-68
2021/12/29 01:36:21;;;;;;;13.33;7.90;;;-5.40;99.90;;;;;;4993753;28;20203;-68
2021/12/29 01:38:48;;;;;;;14.63;8.43;;;-5.40;99.90;;;;;;4993826;28;20584;-70
2021/12/29 01:41:14;;;;;;;14.40;8.43;;;-5.40;99.90;;;;;;4993961;28;20226;-68
2021/12/29 01:43:41;;;;;;;14.67;8.73;;;-5.40;99.90;;;;;;4993846;28;20207;-67
2021/12/29 01:46:08;;;;;;;16.30;8.57;;;-5.40;99.90;;;;;;4993451;28;20213;-69
2021/12/29 01:48:36;;;;;;;14.70;7.90;;;-5.40;99.90;;;;;;4993832;28;20592;-70
2021/12/29 01:51:04;;;;;;;18.20;8.07;;;-5.40;99.90;;;;;;4993351;28;20207;-68
2021/12/29 01:53:32;;;;;;;14.27;8.70;;;-5.40;99.90;;;;;;4992819;28;20207;-68
2021/12/29 01:55:59;;;;;;;14.23;8.00;;;-5.40;99.90;;;;;;4993422;28;20204;-68
2021/12/29 01:58:27;;;;;;;16.10;8.77;;;-5.40;99.90;;;;;;4993168;28;20243;-68
2021/12/29 02:00:57;;;;;;;17.20;8.43;;;-5.40;99.90;;;;;;4992992;28;20549;-69
2021/12/29 02:03:24;;;;;;;16.40;8.43;;;-5.40;99.90;;;;;;4993174;28;20207;-68
2021/12/29 02:05:53;;;;;;;21.50;9.13;;;-5.30;99.90;;;;;;4993386;28;20675;-68
2021/12/29 02:08:23;;;;;;;17.80;8.10;;;-5.30;99.90;;;;;;4993238;28;20211;-70
2021/12/29 02:10:50;;;;;;;14.97;8.77;;;-5.30;99.90;;;;;;4993441;28;20290;-68
2021/12/29 02:13:17;;;;;;;14.93;8.83;;;-5.30;99.90;;;;;;4993227;28;20207;-69
2021/12/29 02:15:44;;;;;;;17.33;9.27;;;-5.30;99.90;;;;;;4993328;28;20694;-69
2021/12/29 02:18:14;;;;;;;17.80;9.00;;;-5.30;99.90;;;;;;4992979;28;20238;-68
2021/12/29 02:20:45;;;;;;;19.13;8.83;;;-5.30;99.90;;;;;;4993292;28;20216;-68
2021/12/29 02:23:14;;;;;;;14.80;8.10;;;-5.20;99.90;;;;;;4992724;28;20202;-69
2021/12/29 02:25:49;;;;;;;16.30;8.77;;;-5.30;99.90;;;;;;4993077;28;20597;-68
2021/12/29 02:28:18;;;;;;;17.70;8.70;;;-5.20;99.90;;;;;;4992437;28;20210;-68
2021/12/29 02:30:47;;;;;;;14.07;8.40;;;-5.30;99.90;;;;;;4992840;28;20208;-69
2021/12/29 02:33:16;;;;;;;17.23;8.60;;;-5.30;99.90;;;;;;4992779;28;20211;-68
2021/12/29 02:35:44;;;;;;;15.60;8.43;;;-5.20;99.90;;;;;;4992966;28;20234;-69
2021/12/29 02:38:28;;;;;;;16.00;9.07;;;-5.30;99.90;;;;;;4992720;28;20215;-68
2021/12/29 02:40:57;;;;;;;15.90;8.57;;;-5.30;99.90;;;;;;4992582;28;20187;-68
2021/12/29 02:43:25;;;;;;;16.73;8.77;;;-5.20;99.90;;;;;;4992795;28;20790;-68
2021/12/29 02:45:58;;;;;;;17.50;8.93;;;-5.30;99.90;;;;;;4992730;28;20265;-68
2021/12/29 02:48:27;;;;;;;15.43;8.53;;;-5.30;99.90;;;;;;4992642;28;20195;-67
2021/12/29 02:50:56;;;;;;;17.87;8.60;;;-5.30;99.90;;;;;;4992652;28;20541;-68
2021/12/29 02:53:25;;;;;;;16.23;9.23;;;-5.30;99.90;;;;;;4990385;28;20239;-68
2021/12/29 02:55:52;;;;;;;16.27;8.90;;;-5.20;99.90;;;;;;4991656;28;20203;-67
2021/12/29 02:58:19;;;;;;;16.63;8.73;;;-5.30;99.90;;;;;;4991035;28;20234;-70
2021/12/29 03:00:46;;;;;;;16.30;8.77;;;-5.30;99.90;;;;;;4991390;28;20221;-67
2021/12/29 03:03:17;;;;;;;18.97;9.47;;;-5.30;99.90;;;;;;4991646;28;20290;-70
2021/12/29 03:05:45;;;;;;;16.63;8.77;;;-5.30;99.90;;;;;;4992060;28;20204;-68
2021/12/29 03:08:14;;;;;;;16.13;8.70;;;-5.30;99.90;;;;;;4991898;28;20680;-68
2021/12/29 03:10:42;;;;;;;17.13;9.27;;;-5.20;99.90;;;;;;4992108;28;20314;-69
2021/12/29 03:13:09;;;;;;;19.93;10.47;;;-5.20;99.90;;;;;;4991103;28;20211;-68
2021/12/29 03:15:36;;;;;;;15.80;9.03;;;-5.30;99.90;;;;;;4992090;28;20217;-67
2021/12/29 03:18:04;;;;;;;18.50;9.80;;;-5.30;99.90;;;;;;4992024;28;20302;-67
2021/12/29 03:20:31;;;;;;;15.47;8.23;;;-5.20;99.90;;;;;;4992353;28;20714;-67
2021/12/29 03:22:58;;;;;;;15.80;9.00;;;-5.30;99.90;;;;;;4991383;28;20207;-67
2021/12/29 03:25:26;;;;;;;15.13;7.80;;;-5.30;99.90;;;;;;4991618;28;20254;-68
2021/12/29 03:27:58;;;;;;;15.63;8.50;;;-5.20;99.90;;;;;;4991890;28;20211;-68
2021/12/29 03:30:26;;;;;;;15.67;8.60;;;-5.20;99.90;;;;;;4992144;28;20219;-69
2021/12/29 03:33:02;;;;;;;15.90;8.10;;;-5.20;99.90;;;;;;4991711;28;20201;-67
2021/12/29 03:35:30;;;;;;;19.57;9.23;;;-5.20;99.90;;;;;;4992122;28;20238;-67
2021/12/29 03:37:57;;;;;;;14.67;8.23;;;-5.20;99.90;;;;;;4991574;28;20218;-68
2021/12/29 03:40:26;;;;;;;17.97;8.63;;;-5.10;99.90;;;;;;4991916;28;20250;-68
2021/12/29 03:42:52;;;;;;;20.00;9.47;;;-5.10;99.90;;;;;;4991333;28;20640;-70
2021/12/29 03:45:19;;;;;;;14.83;8.73;;;-5.10;99.90;;;;;;4991708;28;20225;-68
2021/12/29 03:47:46;;;;;;;16.60;8.50;;;-5.10;99.90;;;;;;4991983;28;20203;-68
2021/12/29 03:50:13;;;;;;;15.33;8.37;;;-5.10;99.90;;;;;;4992030;28;20205;-68
2021/12/29 03:52:40;;;;;;;13.93;8.27;;;-5.10;99.90;;;;;;4991565;28;20683;-67
2021/12/29 03:55:08;;;;;;;12.60;7.73;;;-5.10;99.90;;;;;;4991973;28;20541;-67
2021/12/29 03:57:36;;;;;;;13.53;7.80;;;-5.10;99.90;;;;;;4992012;28;20618;-67
2021/12/29 04:00:04;;;;;;;13.53;7.90;;;-5.20;99.90;;;;;;4991226;28;20255;-67
2021/12/29 04:02:31;;;;;;;14.13;7.47;;;-5.10;99.90;;;;;;4991484;28;20199;-68
2021/12/29 04:04:58;;;;;;;13.60;7.93;;;-5.10;99.90;;;;;;4991628;28;20207;-67
2021/12/29 04:07:25;;;;;;;16.47;8.40;;;-5.10;99.90;;;;;;4991817;28;20568;-68
2021/12/29 04:09:51;;;;;;;18.27;9.40;;;-5.10;99.90;;;;;;4991567;28;20203;-68
2021/12/29 04:12:18;;;;;;;15.47;8.80;;;-5.10;99.90;;;;;;4990875;28;20203;-70
2021/12/29 04:14:46;;;;;;;14.30;8.27;;;-5.00;99.90;;;;;;4991498;28;20207;-68
2021/12/29 04:17:15;;;;;;;17.80;9.00;;;-5.00;99.90;;;;;;4991243;28;20659;-67
2021/12/29 04:20:54;;;;;;;17.27;9.57;;;-5.00;99.90;;;;;;4991370;28;20306;-66
2021/12/29 04:22:34;;;;;;;14.33;8.50;;;-5.00;99.90;;;;;;4971913;28;20208;-67
2021/12/29 04:25:01;;;;;;;18.00;9.27;;;-5.00;99.90;;;;;;4973209;28;20560;-69
2021/12/29 04:27:27;;;;;;;17.77;8.53;;;-5.10;99.90;;;;;;4975816;28;20216;-68
2021/12/29 04:29:56;;;;;;;18.77;9.40;;;-5.10;99.90;;;;;;4975716;28;20204;-68
2021/12/29 04:32:22;;;;;;;15.37;8.07;;;-5.10;99.90;;;;;;4995283;28;20667;-68
2021/12/29 04:34:49;;;;;;;15.53;8.70;;;-5.10;99.90;;;;;;4994858;28;20230;-68
2021/12/29 04:37:16;;;;;;;14.93;8.13;;;-5.00;99.90;;;;;;4995138;28;20583;-69
2021/12/29 04:39:43;;;;;;;16.37;8.57;;;-4.90;99.90;;;;;;4994864;28;20223;-69
2021/12/29 04:42:10;;;;;;;15.47;8.17;;;-5.00;99.90;;;;;;4994478;28;20290;-68
2021/12/29 04:44:37;;;;;;;14.77;8.47;;;-5.00;99.90;;;;;;4994688;28;20204;-67
2021/12/29 04:47:07;;;;;;;20.50;10.00;;;-5.00;99.90;;;;;;4994615;28;20211;-69
2021/12/29 04:49:40;;;;;;;15.17;8.63;;;-5.00;99.90;;;;;;4994561;28;20801;-68
2021/12/29 04:52:07;;;;;;;18.03;7.90;;;-5.00;99.90;;;;;;4994630;28;20195;-70
2021/12/29 04:54:34;;;;;;;15.67;8.67;;;-4.90;99.90;;;;;;4994071;28;20195;-68
2021/12/29 04:57:01;;;;;;;17.47;9.20;;;-4.90;99.90;;;;;;4994468;28;20207;-69
2021/12/29 04:59:29;;;;;;;14.47;8.80;;;-4.90;99.90;;;;;;4994381;28;20239;-69
2021/12/29 05:01:56;;;;;;;19.37;10.10;;;-4.90;99.90;;;;;;4994131;28;20675;-69
2021/12/29 05:04:32;;;;;;;17.00;9.07;;;-4.90;99.90;;;;;;4994503;28;20211;-71
2021/12/29 05:09:44;;;;;;;16.40;8.80;;;-5.00;99.90;;;;;;4994224;28;20191;-68
2021/12/29 05:12:11;;;;;;;17.53;8.67;;;-5.00;99.90;;;;;;4994153;28;20204;-71
2021/12/29 05:14:38;;;;;;;16.13;9.03;;;-5.10;99.90;;;;;;4993849;28;20208;-70
2021/12/29 05:17:06;;;;;;;14.57;8.43;;;-5.00;99.90;;;;;;4994077;28;20565;-69
2021/12/29 05:19:35;;;;;;;15.37;9.23;;;-5.00;99.90;;;;;;4993766;28;20223;-68
2021/12/29 05:22:04;;;;;;;16.43;9.50;;;-5.00;99.90;;;;;;4993994;28;20208;-68
2021/12/29 05:24:31;;;;;;;18.63;10.30;;;-5.00;99.90;;;;;;4993644;28;20560;-69
2021/12/29 05:26:58;;;;;;;17.87;10.07;;;-5.00;99.90;;;;;;4993959;28;20211;-68
2021/12/29 05:29:26;;;;;;;18.20;9.80;;;-4.90;99.90;;;;;;4993876;28;20195;-68
2021/12/29 05:31:53;;;;;;;18.73;10.00;;;-4.90;99.90;;;;;;4993989;28;20207;-68
2021/12/29 05:34:20;;;;;;;19.63;9.83;;;-4.90;99.90;;;;;;4993605;28;20237;-68
2021/12/29 05:36:48;;;;;;;15.73;9.73;;;-4.90;99.90;;;;;;4993338;28;20925;-69
2021/12/29 05:39:15;;;;;;;16.90;10.23;;;-4.90;99.90;;;;;;4993231;28;20211;-70
2021/12/29 05:41:42;;;;;;;19.77;10.43;;;-4.90;99.90;;;;;;4993643;28;20560;-68
2021/12/29 05:44:09;;;;;;;19.43;10.90;;;-4.90;99.90;;;;;;4992998;28;20629;-68
2021/12/29 05:46:35;;;;;;;17.47;9.83;;;-4.80;99.90;;;;;;4993153;28;20207;-68
2021/12/29 05:49:02;;;;;;;23.60;10.77;;;-4.90;99.90;;;;;;4993471;28;20195;-68
2021/12/29 05:51:29;;;;;;;22.23;10.87;;;-4.90;99.90;;;;;;4993389;28;20234;-67
2021/12/29 05:53:57;;;;;;;20.50;10.20;;;-4.90;99.90;;;;;;4993498;28;20370;-68
2021/12/29 05:56:25;;;;;;;17.87;9.90;;;-4.90;99.90;;;;;;4992973;28;20199;-69
2021/12/29 05:58:52;;;;;;;16.83;9.93;;;-4.90;99.90;;;;;;4992792;28;20234;-67
2021/12/29 06:01:19;;;;;;;19.00;10.40;;;-4.80;99.90;;;;;;4993290;28;20231;-67
2021/12/29 06:03:45;;;;;;;20.93;10.50;;;-4.80;99.90;;;;;;4992735;28;20207;-66
2021/12/29 06:06:12;;;;;;;18.60;10.73;;;-4.80;99.90;;;;;;4992369;28;20207;-68
2021/12/29 06:08:39;;;;;;;25.37;11.43;;;-4.80;99.90;;;;;;4992994;28;20214;-68
2021/12/29 06:11:07;;;;;;;19.93;10.70;;;-4.80;99.90;;;;;;4993116;28;20203;-68
2021/12/29 06:13:34;;;;;;;20.77;11.33;;;-4.80;99.90;;;;;;4992691;28;20214;-68
2021/12/29 06:16:01;;;;;;;19.63;10.77;;;-4.80;99.90;;;;;;4993394;28;20207;-67
2021/12/29 06:18:27;;;;;;;23.67;11.90;;;-4.80;99.90;;;;;;4992886;28;20548;-66
2021/12/29 06:20:54;;;;;;;21.53;11.33;;;-4.80;99.90;;;;;;4993155;28;20227;-68
2021/12/29 06:23:21;;;;;;;20.67;10.93;;;-4.80;99.90;;;;;;4990630;28;20200;-66
2021/12/29 06:25:48;;;;;;;20.17;11.33;;;-4.80;99.90;;;;;;4992534;28;20200;-68
2021/12/29 06:28:16;;;;;;;20.57;11.03;;;-4.80;99.90;;;;;;4992283;28;20732;-69
2021/12/29 06:30:43;;;;;;;19.63;10.90;;;-4.80;99.90;;;;;;4991627;28;20208;-72
2021/12/29 06:33:10;;;;;;;20.53;11.07;;;-4.80;99.90;;;;;;4991526;28;20212;-69
2021/12/29 06:35:36;;;;;;;22.83;11.50;;;-4.70;99.90;;;;;;4991553;28;20203;-70
2021/12/29 06:38:03;;;;;;;20.83;11.50;;;-4.70;99.90;;;;;;4991852;28;20199;-68
2021/12/29 06:40:31;;;;;;;21.60;11.53;;;-4.70;99.90;;;;;;4991500;28;20230;-68
2021/12/29 06:42:58;;;;;;;23.83;12.80;;;-4.60;99.90;;;;;;4990932;28;20215;-70
2021/12/29 06:45:27;;;;;;;21.20;11.70;;;-4.70;99.90;;;;;;4991601;28;20199;-70
2021/12/29 06:47:54;;;;;;;23.30;11.90;;;-4.70;99.90;;;;;;4991793;28;20285;-68
2021/12/29 06:50:20;;;;;;;24.10;12.23;;;-4.60;99.90;;;;;;4991644;28;20656;-69
2021/12/29 06:52:47;;;;;;;23.83;12.37;;;-4.60;99.90;;;;;;4991524;28;20218;-69
2021/12/29 06:55:14;;;;;;;24.13;12.83;;;-4.60;99.90;;;;;;4992194;28;20206;-69
2021/12/29 06:57:41;;;;;;;26.87;12.50;;;-4.60;99.90;;;;;;4991623;28;20211;-70
2021/12/29 07:00:09;;;;;;;22.83;12.30;;;-4.60;99.90;;;;;;4990868;28;20253;-68
2021/12/29 07:02:37;;;;;;;28.37;13.07;;;-4.60;99.90;;;;;;4991702;28;20640;-70
2021/12/29 07:05:05;;;;;;;25.47;12.70;;;-4.60;99.90;;;;;;4991499;28;20762;-71
2021/12/29 07:07:32;;;;;;;28.30;14.00;;;-4.50;99.90;;;;;;4990446;28;20203;-70
2021/12/29 07:09:59;;;;;;;27.00;12.70;;;-4.50;99.90;;;;;;4991461;28;20294;-70
2021/12/29 07:12:26;;;;;;;26.23;13.87;;;-4.60;99.90;;;;;;4990060;28;20757;-67
2021/12/29 07:14:53;;;;;;;28.03;14.10;;;-4.50;99.90;;;;;;4992011;28;20215;-68
2021/12/29 07:17:20;;;;;;;27.30;14.17;;;-4.50;99.90;;;;;;4991396;28;20227;-69
2021/12/29 07:19:48;;;;;;;24.93;13.27;;;-4.50;99.90;;;;;;4990405;28;20711;-70
2021/12/29 07:22:15;;;;;;;28.80;14.33;;;-4.50;99.90;;;;;;4999834;28;20230;-69
2021/12/29 07:24:42;;;;;;;27.83;13.73;;;-4.40;99.90;;;;;;5006579;28;20199;-68
2021/12/29 07:27:09;;;;;;;25.10;14.00;;;-4.50;99.90;;;;;;4992024;28;20214;-70
2021/12/29 07:29:37;;;;;;;27.87;13.47;;;-4.40;99.90;;;;;;4991979;28;20239;-70
2021/12/29 07:32:04;;;;;;;24.17;13.37;;;-4.40;99.90;;;;;;4991659;28;20203;-70
2021/12/29 07:34:31;;;;;;;29.73;14.60;;;-4.40;99.90;;;;;;4992124;28;20237;-69
2021/12/29 07:36:59;;;;;;;29.10;14.73;;;-4.40;99.90;;;;;;4992161;28;20213;-69
2021/12/29 07:39:26;;;;;;;28.07;14.20;;;-4.30;99.90;;;;;;4992072;28;20203;-71
2021/12/29 07:41:54;;;;;;;27.97;14.03;;;-4.20;99.90;;;;;;4991866;28;20319;-69
2021/12/29 07:44:21;;;;;;;30.13;15.07;;;-4.20;99.90;;;;;;4975930;28;20294;-69
2021/12/29 07:46:52;;;;;;;26.03;13.73;;;-4.20;99.90;;;;;;4972747;28;20223;-69
2021/12/29 07:49:19;;;;;;;30.03;14.53;;;-4.30;99.90;;;;;;4972710;28;20712;-70
2021/12/29 07:51:46;;;;;;;30.80;15.50;;;-4.30;99.90;;;;;;4972454;28;20208;-70
2021/12/29 07:54:14;;;;;;;31.50;15.40;;;-4.30;99.90;;;;;;4972739;28;20204;-70
2021/12/29 07:56:41;;;;;;;31.07;15.00;;;-4.30;99.90;;;;;;4972812;28;20216;-70
2021/12/29 07:59:08;;;;;;;35.17;16.07;;;-4.20;99.90;;;;;;4972340;28;20235;-70
2021/12/29 08:01:35;;;;;;;27.53;15.17;;;-4.20;99.90;;;;;;4978311;28;20562;-70
2021/12/29 08:04:02;;;;;;;29.70;15.57;;;-4.20;99.90;;;;;;4976511;28;20211;-70
2021/12/29 08:06:29;;;;;;;35.10;17.10;;;-4.30;99.90;;;;;;4976221;28;20212;-68
2021/12/29 08:08:56;;;;;;;35.13;17.43;;;-4.30;99.90;;;;;;4978510;28;20208;-69
2021/12/29 08:11:24;;;;;;;38.43;18.57;;;-4.30;99.90;;;;;;4996024;28;20266;-68
2021/12/29 08:13:51;;;;;;;39.40;18.67;;;-4.20;99.90;;;;;;4995661;28;20445;-70
2021/12/29 08:16:18;;;;;;;36.20;17.93;;;-4.20;99.90;;;;;;4995493;28;20214;-69
2021/12/29 08:18:45;;;;;;;39.67;19.17;;;-4.10;99.90;;;;;;4996056;28;20230;-69
2021/12/29 08:21:12;;;;;;;42.20;19.07;;;-4.10;99.90;;;;;;4977029;28;20246;-69
2021/12/29 08:23:38;;;;;;;37.73;18.33;;;-4.00;99.90;;;;;;4976278;28;20661;-70
2021/12/29 08:26:05;;;;;;;37.30;18.13;;;-4.00;99.90;;;;;;4976245;28;20775;-68
2021/12/29 08:28:34;;;;;;;35.20;18.17;;;-4.00;99.90;;;;;;4976188;28;20208;-71
2021/12/29 08:31:01;;;;;;;36.37;18.83;;;-4.00;99.90;;;;;;4976288;28;20224;-71
2021/12/29 08:33:28;;;;;;;35.30;18.27;;;-3.90;99.90;;;;;;4976062;28;20302;-69
2021/12/29 08:35:55;;;;;;;36.67;18.60;;;-3.80;99.90;;;;;;4975935;28;20315;-69
2021/12/29 08:38:22;;;;;;;34.07;18.20;;;-3.90;99.90;;;;;;4976004;28;20208;-70
2021/12/29 08:40:51;;;;;;;36.90;18.57;;;-3.80;99.90;;;;;;4975777;28;20339;-69
2021/12/29 08:43:18;;;;;;;41.20;19.80;;;-3.80;99.90;;;;;;4975527;28;20315;-69
2021/12/29 08:45:47;;;;;;;40.03;20.67;;;-3.80;99.90;;;;;;4975851;28;20212;-71
2021/12/29 08:48:14;;;;;;;45.83;21.33;;;-3.70;99.90;;;;;;4975725;28;20226;-70
2021/12/29 08:50:42;;;;;;;41.60;20.97;;;-3.70;99.90;;;;;;4988961;28;20207;-71
2021/12/29 08:53:09;;;;;;;38.83;20.90;;;-3.60;99.90;;;;;;4995097;28;20199;-70
2021/12/29 08:55:38;;;;;;;41.67;21.17;;;-3.60;99.90;;;;;;4995490;28;20235;-69
2021/12/29 08:58:06;;;;;;;39.23;19.87;;;-3.60;99.90;;;;;;4995374;28;20203;-69
2021/12/29 09:00:33;;;;;;;40.77;19.23;;;-3.60;99.90;;;;;;4994892;28;20203;-68
2021/12/29 09:03:02;;;;;;;36.13;19.40;;;-3.60;99.90;;;;;;4994693;28;20208;-70
2021/12/29 09:05:28;;;;;;;39.70;19.30;;;-3.70;99.90;;;;;;4995223;28;20619;-70
2021/12/29 09:07:55;;;;;;;38.33;19.80;;;-3.80;99.90;;;;;;4995151;28;20213;-71
2021/12/29 09:10:22;;;;;;;43.23;20.07;;;-3.80;99.90;;;;;;4994735;28;20286;-71
2021/12/29 09:12:51;;;;;;;38.30;18.80;;;-3.80;99.90;;;;;;4995235;28;20211;-70
2021/12/29 09:15:19;;;;;;;40.90;20.33;;;-3.70;99.90;;;;;;4994613;28;20254;-71
2021/12/29 09:17:46;;;;;;;41.13;20.87;;;-3.70;99.90;;;;;;4995192;28;20570;-70
2021/12/29 09:20:24;;;;;;;41.60;20.50;;;-3.70;99.90;;;;;;4994806;28;20660;-69
2021/12/29 09:22:52;;;;;;;41.10;20.60;;;-3.70;99.90;;;;;;4995236;28;20219;-70
2021/12/29 09:25:19;;;;;;;41.47;21.07;;;-3.60;99.90;;;;;;4993916;28;20214;-69
2021/12/29 09:27:49;;;;;;;41.83;22.17;;;-3.60;99.90;;;;;;4994553;28;20534;-70
2021/12/29 09:30:18;;;;;;;42.60;21.57;;;-3.60;99.90;;;;;;4994080;28;20227;-70
2021/12/29 09:32:44;;;;;;;45.00;22.17;;;-3.70;99.90;;;;;;4996529;28;20207;-70
2021/12/29 09:35:12;;;;;;;43.40;22.37;;;-3.60;99.90;;;;;;5013436;28;20215;-70
2021/12/29 09:37:41;;;;;;;42.63;23.33;;;-3.60;99.90;;;;;;5014130;28;20210;-70
2021/12/29 09:40:09;;;;;;;44.53;22.60;;;-3.70;99.90;;;;;;5013700;28;20216;-69
2021/12/29 09:42:36;;;;;;;43.30;22.23;;;-3.70;99.90;;;;;;5011443;28;20314;-69
2021/12/29 09:45:05;;;;;;;43.77;23.60;;;-3.60;99.90;;;;;;4974553;28;20204;-71
2021/12/29 09:47:33;;;;;;;43.73;22.03;;;-3.50;99.90;;;;;;4974901;28;20218;-70
2021/12/29 09:50:00;;;;;;;37.93;18.97;;;-3.60;99.90;;;;;;4974020;28;20204;-70
2021/12/29 09:52:30;;;;;;;36.00;18.80;;;-3.60;99.90;;;;;;4988248;28;20204;-69
2021/12/29 09:54:59;;;;;;;38.83;20.20;;;-3.70;99.90;;;;;;4993743;28;20207;-70
2021/12/29 09:57:26;;;;;;;40.50;20.33;;;-3.70;99.90;;;;;;4993684;28;20203;-69
2021/12/29 09:59:53;;;;;;;37.13;19.13;;;-3.60;99.90;;;;;;4993231;28;20514;-68
2021/12/29 10:02:20;;;;;;;39.90;21.07;;;-3.60;99.90;;;;;;4993128;28;20230;-69
2021/12/29 10:04:47;;;;;;;43.37;21.37;;;-3.60;99.90;;;;;;4993753;28;20638;-68
2021/12/29 10:07:16;;;;;;;41.10;21.10;;;-3.50;99.90;;;;;;4993429;28;20226;-69
2021/12/29 10:09:43;;;;;;;40.53;22.33;;;-3.50;99.90;;;;;;4993232;28;20656;-70
2021/12/29 10:12:18;;;;;;;42.67;22.33;;;-3.50;99.90;;;;;;4993366;28;20307;-69
2021/12/29 10:14:49;;;;;;;40.73;21.20;;;-3.40;99.90;;;;;;4993124;28;20195;-69
2021/12/29 10:17:16;;;;;;;39.63;21.03;;;-3.40;99.90;;;;;;4993393;28;20290;-70
2021/12/29 10:19:44;;;;;;;40.03;20.30;;;-3.30;99.90;;;;;;4992750;28;20238;-69
2021/12/29 10:22:21;;;;;;;40.13;18.73;;;-3.40;99.90;;;;;;4991571;28;20230;-70
2021/12/29 10:24:48;;;;;;;42.70;19.63;;;-3.50;99.90;;;;;;4983185;28;20253;-70
2021/12/29 10:27:19;;;;;;;38.37;19.17;;;-3.60;99.90;;;;;;4993840;28;20322;-70
2021/12/29 10:29:46;;;;;;;45.00;21.13;;;-3.60;99.90;;;;;;4991025;28;20227;-69
2021/12/29 10:32:23;;;;;;;49.17;21.67;;;-3.60;99.90;;;;;;4993222;28;20213;-69
2021/12/29 10:34:52;;;;;;;41.30;20.83;;;-3.70;99.90;;;;;;4992537;28;20198;-71
2021/12/29 10:37:20;;;;;;;44.40;21.33;;;-3.60;99.90;;;;;;4992995;28;20207;-69
2021/12/29 10:39:50;;;;;;;48.10;21.77;;;-3.60;99.90;;;;;;4992337;28;20633;-69
2021/12/29 10:42:20;;;;;;;52.90;21.93;;;-3.60;99.90;;;;;;4991910;28;20299;-71
2021/12/29 10:44:49;;;;;;;45.57;22.63;;;-3.50;99.90;;;;;;4992434;28;20195;-69
2021/12/29 10:47:18;;;;;;;43.53;22.47;;;-3.60;99.90;;;;;;4993057;28;20227;-70
2021/12/29 10:49:53;;;;;;;46.17;22.70;;;-3.60;99.90;;;;;;4992161;28;20592;-68
2021/12/29 10:52:32;;;;;;;44.27;22.23;;;-3.60;99.90;;;;;;4992224;28;20195;-70
2021/12/29 10:54:59;;;;;;;46.27;21.50;;;-3.60;99.90;;;;;;4992097;28;20302;-70
2021/12/29 10:57:27;;;;;;;42.70;21.10;;;-3.60;99.90;;;;;;4992035;28;20207;-69
2021/12/29 10:59:58;;;;;;;48.73;23.40;;;-3.60;99.90;;;;;;4991860;28;20253;-71
2021/12/29 11:02:27;;;;;;;40.90;20.57;;;-3.60;99.90;;;;;;4991936;28;20219;-68
2021/12/29 11:04:56;;;;;;;44.83;22.47;;;-3.50;99.90;;;;;;4992261;28;20211;-69
2021/12/29 11:07:27;;;;;;;42.20;20.13;;;-3.60;99.90;;;;;;4991004;28;20204;-70
2021/12/29 11:09:55;;;;;;;47.60;21.00;;;-3.60;99.90;;;;;;4991480;28;20671;-69
2021/12/29 11:12:23;;;;;;;47.67;22.67;;;-3.50;99.90;;;;;;4991719;28;20754;-69
2021/12/29 11:14:53;;;;;;;47.77;22.73;;;-3.40;99.90;;;;;;4992120;28;20664;-69
2021/12/29 11:17:24;;;;;;;50.70;24.57;;;-3.40;99.90;;;;;;4992616;28;20718;-68
2021/12/29 11:19:54;;;;;;;50.63;24.87;;;-3.30;99.90;;;;;;4992047;28;20215;-70
2021/12/29 11:22:24;;;;;;;47.63;24.27;;;-3.30;99.90;;;;;;4992346;28;20576;-69
2021/12/29 11:24:57;;;;;;;54.93;25.77;;;-3.30;99.90;;;;;;4992369;28;20195;-69
2021/12/29 11:27:26;;;;;;;49.73;24.10;;;-3.30;99.90;;;;;;4992535;28;20203;-69
2021/12/29 11:29:56;;;;;;;52.40;25.30;;;-3.20;99.90;;;;;;4992116;28;20218;-71
2021/12/29 11:32:28;;;;;;;57.97;26.17;;;-3.30;99.90;;;;;;4992539;28;20546;-71
2021/12/29 11:35:04;;;;;;;50.97;26.00;;;-3.30;99.90;;;;;;4994767;28;20188;-68
2021/12/29 11:37:32;;;;;;;50.27;24.03;;;-3.30;99.90;;;;;;4996464;28;20637;-69
2021/12/29 11:39:59;;;;;;;50.57;24.57;;;-3.40;99.90;;;;;;4996299;28;20218;-70
2021/12/29 11:42:26;;;;;;;51.17;25.00;;;-3.50;99.90;;;;;;4996265;28;20229;-71
2021/12/29 11:44:54;;;;;;;50.07;24.23;;;-3.40;99.90;;;;;;4996181;28;20211;-71
2021/12/29 11:47:21;;;;;;;53.07;24.63;;;-3.40;99.90;;;;;;4995795;28;20310;-70
2021/12/29 11:49:48;;;;;;;48.87;24.03;;;-3.40;99.90;;;;;;4996043;28;20642;-70
2021/12/29 11:52:37;;;;;;;47.83;24.10;;;-3.40;99.90;;;;;;4996143;28;20210;-71
2021/12/29 11:55:10;;;;;;;47.57;23.20;;;-3.40;99.90;;;;;;4983296;28;20664;-69
2021/12/29 11:57:37;;;;;;;41.30;21.73;;;-3.40;99.90;;;;;;4995784;28;20191;-70
2021/12/29 12:00:11;;;;;;;47.80;22.87;;;-3.30;99.90;;;;;;4995712;28;20601;-68
2021/12/29 12:02:39;;;;;;;51.53;24.93;;;-3.30;99.90;;;;;;4995813;28;20233;-69
2021/12/29 12:05:08;;;;;;;51.63;24.77;;;-3.40;99.90;;;;;;4995961;28;20211;-69
2021/12/29 12:07:36;;;;;;;51.50;24.47;;;-3.30;99.90;;;;;;4995764;28;20214;-68
2021/12/29 12:10:09;;;;;;;49.20;24.60;;;-3.20;99.90;;;;;;4995936;28;20282;-71
2021/12/29 12:12:38;;;;;;;50.00;23.60;;;-3.20;99.90;;;;;;4995569;28;20284;-69
2021/12/29 12:15:08;;;;;;;49.00;24.90;;;-3.20;99.90;;;;;;4996339;28;20237;-69
2021/12/29 12:17:36;;;;;;;45.90;22.97;;;-3.20;99.90;;;;;;4995578;28;20227;-70
2021/12/29 12:20:08;;;;;;;45.03;23.07;;;-3.10;99.90;;;;;;4995617;28;20675;-70
2021/12/29 12:22:44;;;;;;;50.73;24.60;;;-3.10;99.90;;;;;;4995276;28;20215;-68
2021/12/29 12:25:11;;;;;;;52.83;24.20;;;-3.00;99.90;;;;;;4995743;28;20207;-69
2021/12/29 12:27:40;;;;;;;46.37;23.47;;;-3.00;99.90;;;;;;4995142;28;20207;-69
2021/12/29 12:30:11;;;;;;;46.00;23.23;;;-3.10;99.90;;;;;;4995667;28;20281;-70
2021/12/29 12:32:44;;;;;;;47.93;23.90;;;-3.10;99.90;;;;;;4995310;28;20188;-68
2021/12/29 12:35:12;;;;;;;47.60;24.33;;;-3.10;99.90;;;;;;4995165;28;20192;-69
2021/12/29 12:37:42;;;;;;;43.70;22.07;;;-3.20;99.90;;;;;;4995122;28;20226;-70